Time;durP1;ratioP1;P1;durP2;ratioP2;P2;SDS_P1;SDS_P2;PMS_P1;PMS_P2;Temp;Humidity;BMP_temperature;BMP_pressure;BME280_temperature;BME280_humidity;BME280_pressure;Samples;Min_cycle;Max_cycle;Signal;HPM_P1;HPM_P2
2022/10/06 04:02:31;;;;;;;4.10;2.43;;;13.90;96.30;;;;;;4985331;23;20502;-76
2022/10/06 04:04:56;;;;;;;15.63;8.40;;;13.80;96.30;;;;;;4955380;29;20415;-76
2022/10/06 04:07:22;;;;;;;4.30;3.30;;;13.70;96.30;;;;;;4954920;29;20525;-77
2022/10/06 04:09:47;;;;;;;7.40;2.80;;;13.70;96.30;;;;;;4948831;28;20179;-77
2022/10/06 04:12:13;;;;;;;7.07;1.50;;;13.60;96.30;;;;;;4942355;29;20195;-75
2022/10/06 04:14:38;;;;;;;5.50;1.53;;;13.60;96.30;;;;;;4955205;28;20555;-75
2022/10/06 04:17:04;;;;;;;4.67;1.60;;;13.50;96.30;;;;;;4954517;28;20210;-76
2022/10/06 04:19:29;;;;;;;2.70;1.40;;;13.40;96.30;;;;;;4949221;28;20190;-74
2022/10/06 04:21:55;;;;;;;2.83;2.20;;;13.40;96.30;;;;;;4935831;29;20192;-75
2022/10/06 04:24:20;;;;;;;4.97;1.60;;;13.40;96.30;;;;;;4935113;29;20214;-76
2022/10/06 04:26:47;;;;;;;3.87;1.57;;;13.40;96.30;;;;;;4949753;29;20183;-75
2022/10/06 04:29:14;;;;;;;11.60;2.20;;;13.40;96.30;;;;;;4954851;28;20171;-75
2022/10/06 04:31:41;;;;;;;4.50;1.87;;;13.40;96.30;;;;;;4953722;28;20805;-75
2022/10/06 04:34:08;;;;;;;2.13;1.70;;;13.50;96.30;;;;;;4953926;28;20454;-75
2022/10/06 04:36:40;;;;;;;2.83;2.50;;;13.50;96.30;;;;;;4939219;28;20494;-74
2022/10/06 04:39:09;;;;;;;2.47;1.33;;;13.50;96.30;;;;;;4940625;29;20415;-74
2022/10/06 04:41:37;;;;;;;3.90;1.90;;;13.60;96.30;;;;;;4954468;28;20466;-75
2022/10/06 04:44:05;;;;;;;3.47;1.67;;;13.60;96.30;;;;;;4952982;29;20876;-76
2022/10/06 04:46:32;;;;;;;5.23;2.13;;;13.60;96.30;;;;;;4954571;29;20418;-76
2022/10/06 04:48:58;;;;;;;2.00;1.50;;;13.60;96.30;;;;;;4953962;29;20489;-75
2022/10/06 04:51:25;;;;;;;2.83;1.50;;;13.60;96.30;;;;;;4953732;28;20525;-76
2022/10/06 04:53:51;;;;;;;6.47;2.00;;;13.70;96.30;;;;;;4954809;28;20494;-76
2022/10/06 04:56:23;;;;;;;7.53;1.70;;;13.80;96.30;;;;;;4954893;28;20509;-77
2022/10/06 04:58:50;;;;;;;3.47;1.53;;;13.80;96.30;;;;;;4954558;28;20207;-77
2022/10/06 05:03:54;;;;;;;5.03;1.77;;;13.90;96.30;;;;;;5350291;23;20513;-76
2022/10/06 05:06:22;;;;;;;1.93;1.47;;;13.90;96.30;;;;;;4953294;28;20454;-76
2022/10/06 05:08:53;;;;;;;2.40;1.60;;;13.80;96.30;;;;;;4952680;28;20421;-76
2022/10/06 05:11:20;;;;;;;1.20;1.10;;;13.80;96.30;;;;;;4945091;28;20908;-77
2022/10/06 05:13:46;;;;;;;5.93;1.83;;;13.80;96.30;;;;;;4935361;29;20475;-76
2022/10/06 05:16:14;;;;;;;3.00;1.60;;;13.80;96.30;;;;;;4935281;29;20411;-76
2022/10/06 05:18:41;;;;;;;4.63;1.77;;;13.80;96.30;;;;;;4935096;29;20491;-76
2022/10/06 05:21:12;;;;;;;10.53;1.73;;;13.80;96.30;;;;;;4935180;29;20428;-76
2022/10/06 05:23:39;;;;;;;3.97;1.90;;;13.90;96.30;;;;;;4935207;29;20455;-76
2022/10/06 05:26:06;;;;;;;8.53;1.90;;;13.90;96.30;;;;;;4935180;29;20411;-76
2022/10/06 05:28:32;;;;;;;2.23;1.90;;;13.90;96.30;;;;;;4935103;29;20415;-76
2022/10/06 05:31:02;;;;;;;4.63;1.87;;;14.00;96.30;;;;;;4934733;29;20435;-76
2022/10/06 05:33:30;;;;;;;2.23;1.50;;;14.10;96.30;;;;;;4935276;29;20419;-77
2022/10/06 05:35:58;;;;;;;3.83;1.87;;;14.20;96.30;;;;;;4936392;29;20430;-76
2022/10/06 05:38:24;;;;;;;1.93;1.80;;;14.20;96.30;;;;;;4935090;29;20766;-77
2022/10/06 05:40:50;;;;;;;3.63;2.07;;;14.20;96.30;;;;;;4928631;29;21017;-77
2022/10/06 05:43:17;;;;;;;3.87;2.33;;;14.30;96.30;;;;;;4918770;29;20464;-76
2022/10/06 05:45:56;;;;;;;3.50;2.03;;;14.20;96.30;;;;;;4916763;29;20168;-76
2022/10/06 05:48:22;;;;;;;3.10;1.80;;;14.30;96.30;;;;;;4916696;29;20486;-77
2022/10/06 05:50:56;;;;;;;6.47;1.60;;;14.40;96.30;;;;;;4915425;29;20995;-75
2022/10/06 05:53:21;;;;;;;6.23;2.50;;;14.40;96.30;;;;;;4917187;29;20177;-76
2022/10/06 05:55:47;;;;;;;4.83;1.60;;;14.40;96.30;;;;;;4916889;29;20419;-76
2022/10/06 05:58:12;;;;;;;2.77;1.90;;;14.40;96.30;;;;;;4917090;29;20184;-76
2022/10/06 06:00:38;;;;;;;5.30;1.53;;;14.40;96.30;;;;;;4917030;29;20651;-77
2022/10/06 06:03:08;;;;;;;5.97;2.03;;;14.40;96.30;;;;;;4916648;29;20267;-76
2022/10/06 06:05:33;;;;;;;6.83;2.40;;;14.40;96.30;;;;;;4917156;29;20187;-76
2022/10/06 06:07:59;;;;;;;5.00;2.00;;;14.40;96.30;;;;;;4916762;29;20421;-77
2022/10/06 06:10:24;;;;;;;4.13;1.83;;;14.50;96.30;;;;;;4914813;29;20232;-77
2022/10/06 06:12:50;;;;;;;5.50;1.93;;;14.50;96.30;;;;;;4915747;29;20192;-77
2022/10/06 06:16:01;;;;;;;5.13;2.13;;;14.50;96.30;;;;;;4946794;29;20184;-77
2022/10/06 06:18:04;;;;;;;5.97;2.10;;;14.60;96.30;;;;;;4918100;29;20779;-77
2022/10/06 06:20:30;;;;;;;4.77;1.93;;;14.60;96.30;;;;;;4915743;29;20446;-77
2022/10/06 06:22:55;;;;;;;6.60;1.73;;;14.60;96.30;;;;;;4915783;29;20456;-77
2022/10/06 06:25:21;;;;;;;3.00;2.20;;;14.60;96.30;;;;;;4918806;29;20621;-77
2022/10/06 06:27:46;;;;;;;2.20;1.67;;;14.60;96.30;;;;;;4953623;29;20198;-77
2022/10/06 06:30:12;;;;;;;3.40;1.83;;;14.60;96.30;;;;;;4953648;28;20171;-77
2022/10/06 06:32:38;;;;;;;9.93;2.17;;;14.50;96.30;;;;;;4953900;28;20631;-77
2022/10/06 06:35:04;;;;;;;7.97;1.97;;;14.50;96.30;;;;;;4946138;28;20184;-77
2022/10/06 06:37:30;;;;;;;2.10;1.90;;;14.50;96.30;;;;;;4934612;29;20433;-77
2022/10/06 06:39:55;;;;;;;4.97;2.23;;;14.50;96.30;;;;;;4934102;29;20422;-77
2022/10/06 06:42:21;;;;;;;3.17;2.70;;;14.50;96.30;;;;;;4934873;29;20218;-79
2022/10/06 06:44:46;;;;;;;13.67;2.67;;;14.40;96.30;;;;;;4938658;29;20267;-80
2022/10/06 06:47:12;;;;;;;3.10;1.77;;;14.20;96.30;;;;;;4938399;29;20175;-81
2022/10/06 06:49:37;;;;;;;3.53;2.40;;;14.10;96.30;;;;;;4938162;29;20224;-81
2022/10/06 06:52:04;;;;;;;2.40;1.37;;;13.90;96.30;;;;;;4937779;29;20278;-78
2022/10/06 06:54:29;;;;;;;1.87;1.10;;;13.80;96.30;;;;;;4937616;29;20223;-78
2022/10/06 06:56:55;;;;;;;1.20;0.80;;;13.20;96.30;;;;;;4937336;29;20416;-79
2022/10/06 06:59:21;;;;;;;1.77;1.00;;;12.60;96.30;;;;;;4937661;29;20175;-79
2022/10/06 07:01:47;;;;;;;2.67;0.83;;;12.30;96.30;;;;;;4952352;28;20446;-79
2022/10/06 07:04:15;;;;;;;1.17;0.70;;;11.90;96.30;;;;;;4936375;29;20207;-81
2022/10/06 07:06:45;;;;;;;1.20;0.70;;;11.70;96.30;;;;;;4936399;29;20439;-81
2022/10/06 07:09:10;;;;;;;1.67;0.80;;;11.50;96.30;;;;;;4938054;29;20891;-81
2022/10/06 07:11:38;;;;;;;2.40;0.80;;;11.40;96.30;;;;;;4936431;29;20447;-81
2022/10/06 07:14:11;;;;;;;1.30;0.60;;;11.30;96.30;;;;;;4938755;29;20254;-81
2022/10/06 07:25:06;;;;;;;4.40;1.00;;;11.30;96.30;;;;;;4937457;29;20414;-81
2022/10/06 07:27:35;;;;;;;1.90;0.70;;;11.30;96.30;;;;;;4938349;29;20387;-81
2022/10/06 07:30:04;;;;;;;3.00;0.80;;;11.30;96.30;;;;;;4955536;29;20451;-80
2022/10/06 07:32:31;;;;;;;5.87;0.80;;;11.20;96.30;;;;;;4942603;29;20429;-79
2022/10/06 07:34:57;;;;;;;3.33;1.43;;;11.20;96.30;;;;;;4944469;29;20415;-80
2022/10/06 07:37:24;;;;;;;10.73;1.97;;;11.30;96.30;;;;;;4943583;29;20407;-80
2022/10/06 07:39:50;;;;;;;1.47;0.60;;;11.30;96.30;;;;;;4936974;29;20918;-81
2022/10/06 07:42:16;;;;;;;1.00;0.63;;;11.40;96.30;;;;;;4952369;28;20439;-81
2022/10/06 07:44:43;;;;;;;3.17;1.00;;;11.40;96.30;;;;;;4937723;29;20640;-80
2022/10/06 07:47:08;;;;;;;4.40;0.73;;;11.40;96.30;;;;;;4937079;29;20431;-80
2022/10/06 07:49:34;;;;;;;1.60;0.70;;;11.40;96.30;;;;;;4937383;29;20408;-81
2022/10/06 07:52:00;;;;;;;2.90;0.90;;;11.40;96.30;;;;;;4937369;29;20200;-80
2022/10/06 07:54:25;;;;;;;2.97;0.73;;;11.40;96.30;;;;;;4935669;29;20666;-81
2022/10/06 07:56:52;;;;;;;3.17;0.70;;;11.40;96.30;;;;;;4937264;29;20254;-80
2022/10/06 07:59:17;;;;;;;3.50;0.80;;;11.40;96.30;;;;;;4937174;29;20262;-81
2022/10/06 08:01:44;;;;;;;5.87;1.10;;;11.40;96.30;;;;;;4936966;29;20469;-81
2022/10/06 08:04:10;;;;;;;9.00;1.10;;;11.40;96.30;;;;;;4937008;29;20299;-79
2022/10/06 08:06:37;;;;;;;2.83;0.70;;;11.40;96.30;;;;;;4935369;29;20510;-81
2022/10/06 08:09:03;;;;;;;4.67;1.00;;;11.30;96.30;;;;;;4936946;29;20502;-81
2022/10/06 08:11:29;;;;;;;3.47;1.10;;;11.40;96.30;;;;;;4936558;29;20447;-80
2022/10/06 08:13:55;;;;;;;2.40;1.00;;;11.40;96.30;;;;;;4936536;29;20427;-80
2022/10/06 08:16:23;;;;;;;3.07;1.00;;;11.50;96.30;;;;;;4936664;29;20202;-80
2022/10/06 08:18:53;;;;;;;4.30;1.10;;;11.60;96.30;;;;;;4936180;29;20451;-80
2022/10/06 08:21:22;;;;;;;1.77;0.90;;;11.80;96.30;;;;;;4936416;29;20502;-80
2022/10/06 08:23:49;;;;;;;1.63;0.90;;;11.80;96.30;;;;;;4950906;29;20553;-80
2022/10/06 08:26:17;;;;;;;4.27;0.97;;;12.00;96.30;;;;;;4935181;29;20824;-79
2022/10/06 08:28:45;;;;;;;1.23;0.90;;;12.00;96.30;;;;;;4950883;29;20900;-80
2022/10/06 08:31:11;;;;;;;3.13;0.87;;;11.90;96.30;;;;;;4934842;29;20530;-79
2022/10/06 08:33:38;;;;;;;7.00;0.97;;;12.10;96.30;;;;;;4934643;29;20455;-80
2022/10/06 08:36:09;;;;;;;4.10;0.80;;;12.20;96.30;;;;;;4934772;29;20431;-80
2022/10/06 08:38:36;;;;;;;2.40;0.90;;;12.40;96.30;;;;;;4950495;29;20424;-79
2022/10/06 08:41:33;;;;;;;2.47;1.00;;;12.50;96.30;;;;;;4935819;29;20912;-80
2022/10/06 08:44:05;;;;;;;5.30;0.90;;;12.70;96.30;;;;;;4933833;29;20456;-80
2022/10/06 08:46:40;;;;;;;4.23;0.80;;;12.80;96.30;;;;;;4915496;29;20550;-80
2022/10/06 08:49:14;;;;;;;3.00;0.70;;;12.90;96.30;;;;;;4916591;29;20396;-80
2022/10/06 08:51:55;;;;;;;4.60;1.20;;;13.00;96.30;;;;;;4917514;29;20480;-79
2022/10/06 08:54:34;;;;;;;4.70;0.90;;;13.00;96.30;;;;;;4915571;29;21053;-79
2022/10/06 08:57:07;;;;;;;4.13;1.03;;;12.90;96.30;;;;;;4931137;29;20928;-79
2022/10/06 08:59:36;;;;;;;1.90;0.73;;;12.90;96.30;;;;;;4935287;29;20490;-79
2022/10/06 09:02:05;;;;;;;2.07;0.90;;;12.90;96.30;;;;;;4935473;29;20522;-79
2022/10/06 09:04:32;;;;;;;4.37;0.90;;;13.00;96.30;;;;;;4933367;29;21030;-79
2022/10/06 09:07:11;;;;;;;2.33;0.73;;;12.90;96.30;;;;;;4935177;29;20787;-79
2022/10/06 09:09:53;;;;;;;11.73;1.27;;;13.10;96.30;;;;;;4934166;29;20427;-79
2022/10/06 09:12:38;;;;;;;5.47;1.80;;;13.20;96.30;;;;;;4915039;29;20866;-79
2022/10/06 09:15:29;;;;;;;6.80;1.50;;;13.30;96.30;;;;;;4915275;29;20412;-79
2022/10/06 09:18:09;;;;;;;5.60;1.10;;;13.30;96.30;;;;;;4914952;29;20416;-79
2022/10/06 09:20:56;;;;;;;4.60;1.10;;;13.60;96.30;;;;;;4930961;29;20948;-79
2022/10/06 09:26:11;;;;;;;2.67;0.70;;;14.00;96.30;;;;;;4916437;29;20432;-79
2022/10/06 09:28:37;;;;;;;5.40;1.10;;;14.10;96.30;;;;;;4934709;29;20419;-79
2022/10/06 09:31:21;;;;;;;7.20;1.10;;;14.10;96.30;;;;;;4928765;29;20447;-79
2022/10/06 09:33:48;;;;;;;2.87;0.93;;;14.40;96.30;;;;;;4935295;29;20187;-79
2022/10/06 09:36:14;;;;;;;3.43;1.43;;;14.50;96.30;;;;;;4934738;29;20426;-80
2022/10/06 09:38:54;;;;;;;3.40;1.20;;;14.60;96.30;;;;;;4936121;29;20486;-80
2022/10/06 09:41:33;;;;;;;9.30;1.70;;;15.00;96.30;;;;;;4936098;29;20222;-80
2022/10/06 09:44:20;;;;;;;7.57;1.27;;;14.90;96.30;;;;;;4936244;29;20486;-80
2022/10/06 09:46:46;;;;;;;4.93;0.90;;;15.40;96.30;;;;;;4936140;29;20396;-80
2022/10/06 09:49:18;;;;;;;8.07;1.47;;;15.70;96.30;;;;;;4936690;29;20467;-80
2022/10/06 09:52:13;;;;;;;4.30;1.00;;;15.80;96.30;;;;;;4934976;29;20680;-80
2022/10/06 09:54:42;;;;;;;5.13;1.07;;;15.70;96.30;;;;;;4934487;29;21106;-79
2022/10/06 09:57:14;;;;;;;6.17;1.03;;;15.50;96.30;;;;;;4936179;29;20412;-80
2022/10/06 09:59:43;;;;;;;4.70;1.20;;;15.40;96.30;;;;;;4934909;29;20442;-80
2022/10/06 10:02:37;;;;;;;2.57;0.80;;;15.10;96.30;;;;;;4936016;29;20490;-80
2022/10/06 10:05:07;;;;;;;3.50;0.80;;;15.00;96.30;;;;;;4935689;29;20404;-79
2022/10/06 10:07:35;;;;;;;4.77;1.00;;;15.10;96.30;;;;;;4933907;29;20414;-79
2022/10/06 10:10:20;;;;;;;4.47;1.00;;;15.10;96.30;;;;;;4934555;29;20430;-79
2022/10/06 10:12:50;;;;;;;3.33;1.43;;;15.70;96.30;;;;;;4934205;29;20446;-80
2022/10/06 10:15:18;;;;;;;2.40;1.00;;;16.80;96.30;;;;;;4936006;29;20899;-79
2022/10/06 10:17:47;;;;;;;3.60;0.83;;;17.80;96.30;;;;;;4939456;29;20415;-79
2022/10/06 10:20:36;;;;;;;4.50;0.90;;;18.60;96.30;;;;;;4940250;29;20439;-79
2022/10/06 10:23:22;;;;;;;4.30;1.40;;;18.20;96.30;;;;;;4939748;29;20475;-79
2022/10/06 10:26:02;;;;;;;7.57;1.43;;;17.60;96.30;;;;;;4938372;29;20931;-79
2022/10/06 10:28:47;;;;;;;3.83;1.10;;;17.60;96.30;;;;;;4938250;29;20494;-79
2022/10/06 10:31:40;;;;;;;1.73;0.80;;;18.30;96.30;;;;;;4939813;29;20431;-79
2022/10/06 10:34:42;;;;;;;4.60;1.07;;;17.50;96.30;;;;;;4939696;29;20422;-79
2022/10/06 10:37:15;;;;;;;5.23;1.10;;;16.70;96.30;;;;;;4939495;29;20462;-79
2022/10/06 10:39:48;;;;;;;4.60;1.07;;;17.00;96.30;;;;;;4938329;29;20529;-79
2022/10/06 10:42:20;;;;;;;4.40;1.20;;;17.70;96.30;;;;;;4939497;29;20842;-79
2022/10/06 10:45:23;;;;;;;2.53;0.93;;;18.30;96.30;;;;;;4938527;29;20451;-79
2022/10/06 10:47:49;;;;;;;3.80;1.10;;;19.30;96.30;;;;;;4924218;29;20856;-79
2022/10/06 10:50:26;;;;;;;9.10;1.53;;;19.20;96.30;;;;;;4939651;29;20502;-79
2022/10/06 10:53:07;;;;;;;2.70;1.00;;;19.20;96.30;;;;;;4931671;29;20192;-78
2022/10/06 10:55:44;;;;;;;2.73;1.03;;;19.40;96.30;;;;;;4938146;29;20416;-78
2022/10/06 10:58:35;;;;;;;7.17;1.30;;;19.20;96.30;;;;;;4933910;29;20439;-79
2022/10/06 11:01:28;;;;;;;6.20;1.17;;;18.70;96.30;;;;;;4938043;29;20435;-79
2022/10/06 11:03:57;;;;;;;3.90;0.97;;;18.20;96.30;;;;;;4921773;29;20478;-78
2022/10/06 11:06:38;;;;;;;6.43;1.33;;;18.70;96.30;;;;;;4937641;29;20410;-79
2022/10/06 11:09:09;;;;;;;3.50;1.20;;;19.10;96.30;;;;;;4939196;29;20413;-79
2022/10/06 11:11:55;;;;;;;4.70;1.37;;;18.40;96.30;;;;;;4941012;29;20428;-79
2022/10/06 11:14:46;;;;;;;4.60;0.97;;;17.30;96.30;;;;;;4938600;29;20911;-79
2022/10/06 11:17:45;;;;;;;5.47;1.30;;;16.50;96.30;;;;;;4918997;29;20447;-78
2022/10/06 11:20:14;;;;;;;2.50;0.90;;;16.10;96.30;;;;;;4918321;29;20872;-79
2022/10/06 11:22:58;;;;;;;10.17;1.40;;;15.90;96.30;;;;;;4916878;29;20424;-78
2022/10/06 11:25:40;;;;;;;5.07;1.00;;;15.70;96.30;;;;;;4921143;29;20428;-79
2022/10/06 11:28:43;;;;;;;2.83;0.70;;;15.50;96.30;;;;;;4937090;29;20402;-79
2022/10/06 11:31:19;;;;;;;3.50;1.00;;;15.70;96.30;;;;;;4938389;29;20437;-79
2022/10/06 11:33:49;;;;;;;3.10;1.10;;;16.40;96.30;;;;;;4938218;29;20439;-79
2022/10/06 11:36:33;;;;;;;3.83;1.20;;;16.20;96.30;;;;;;4938101;29;20423;-79
2022/10/06 11:39:21;;;;;;;4.23;1.40;;;16.20;96.30;;;;;;4938852;29;20822;-79
2022/10/06 11:42:03;;;;;;;3.77;1.00;;;15.80;96.30;;;;;;4929456;29;20510;-79
2022/10/06 11:44:46;;;;;;;3.10;1.30;;;15.30;96.30;;;;;;4918691;29;20459;-79
2022/10/06 11:47:29;;;;;;;9.13;1.10;;;15.10;96.30;;;;;;4918304;29;20896;-79
2022/10/06 11:49:55;;;;;;;3.53;1.23;;;15.90;96.30;;;;;;4918138;29;20410;-78
2022/10/06 11:52:20;;;;;;;6.00;1.40;;;16.40;96.30;;;;;;4918135;29;20440;-79
2022/10/06 11:54:55;;;;;;;6.33;1.30;;;16.80;96.30;;;;;;4917186;29;20227;-79
2022/10/06 11:57:25;;;;;;;9.60;1.23;;;16.90;96.30;;;;;;4917169;29;20610;-79
2022/10/06 11:59:55;;;;;;;7.43;1.20;;;16.40;96.30;;;;;;4918321;29;20416;-79
2022/10/06 12:02:45;;;;;;;7.10;1.13;;;16.20;96.30;;;;;;4917894;29;20462;-79
2022/10/06 12:05:14;;;;;;;6.97;1.77;;;17.00;96.30;;;;;;4918160;29;20464;-79
2022/10/06 12:08:08;;;;;;;6.23;1.50;;;17.50;96.30;;;;;;4917888;29;20409;-79
2022/10/06 12:10:34;;;;;;;5.50;1.17;;;17.80;96.30;;;;;;4936856;29;20439;-79
2022/10/06 12:13:21;;;;;;;5.07;1.23;;;17.90;96.30;;;;;;4937143;29;21259;-79
2022/10/06 12:15:55;;;;;;;8.17;1.30;;;18.10;96.30;;;;;;4936938;29;20186;-79
2022/10/06 12:18:36;;;;;;;6.93;1.33;;;17.80;96.30;;;;;;4936925;29;20498;-79
2022/10/06 12:21:31;;;;;;;4.47;1.00;;;18.10;96.30;;;;;;4936735;29;20458;-79
2022/10/06 12:24:35;;;;;;;6.13;1.10;;;18.60;96.30;;;;;;4935217;29;20862;-79
2022/10/06 12:27:27;;;;;;;5.13;1.10;;;18.70;96.30;;;;;;4951718;29;20993;-78
2022/10/06 12:30:23;;;;;;;4.40;1.03;;;18.80;96.30;;;;;;4936395;29;20451;-79
2022/10/06 12:32:52;;;;;;;9.73;1.73;;;19.00;96.30;;;;;;4936675;29;20416;-79
2022/10/06 12:35:31;;;;;;;5.43;1.27;;;18.60;96.30;;;;;;4951964;29;20420;-79
2022/10/06 12:38:04;;;;;;;8.00;1.00;;;18.60;96.30;;;;;;4937011;29;20392;-78
2022/10/06 12:40:45;;;;;;;3.43;1.20;;;19.00;96.30;;;;;;4935636;29;20787;-78
2022/10/06 12:45:47;;;;;;;6.90;1.47;;;19.00;96.30;;;;;;4936554;29;20420;-79
2022/10/06 12:48:40;;;;;;;4.87;1.37;;;18.90;96.30;;;;;;4936602;29;20447;-78
2022/10/06 12:51:17;;;;;;;2.13;1.00;;;19.00;96.30;;;;;;4936862;29;20424;-78
2022/10/06 12:53:49;;;;;;;3.13;0.80;;;19.00;96.30;;;;;;4936457;29;20730;-78
2022/10/06 12:56:28;;;;;;;2.43;0.80;;;18.90;96.30;;;;;;4936472;29;20423;-77
2022/10/06 12:58:54;;;;;;;3.70;1.17;;;18.60;96.30;;;;;;4935834;29;20399;-78
2022/10/06 13:01:21;;;;;;;4.23;1.20;;;18.60;96.30;;;;;;4936060;29;20873;-78
2022/10/06 13:03:49;;;;;;;6.30;1.20;;;18.30;96.30;;;;;;4935971;29;20503;-78
2022/10/06 13:06:20;;;;;;;7.13;1.37;;;18.20;96.30;;;;;;4934370;29;20507;-77
2022/10/06 13:09:04;;;;;;;3.00;1.23;;;18.00;96.30;;;;;;4936489;29;20458;-77
2022/10/06 13:11:31;;;;;;;3.57;1.20;;;18.20;96.30;;;;;;4935440;29;20467;-77
2022/10/06 13:14:06;;;;;;;4.60;1.20;;;18.40;96.30;;;;;;4935663;29;20427;-77
2022/10/06 13:16:38;;;;;;;6.23;1.10;;;18.80;96.30;;;;;;4936207;29;20454;-77
2022/10/06 13:19:05;;;;;;;5.47;1.30;;;18.90;96.30;;;;;;4936210;29;20451;-77
2022/10/06 13:21:32;;;;;;;8.00;1.70;;;18.70;96.30;;;;;;4936329;29;20439;-77
2022/10/06 13:23:58;;;;;;;4.80;1.10;;;18.50;96.30;;;;;;4936633;29;20819;-77
2022/10/06 13:26:29;;;;;;;3.33;1.13;;;18.10;96.30;;;;;;4934472;29;20416;-77
2022/10/06 13:28:56;;;;;;;10.83;1.17;;;17.90;96.30;;;;;;4935275;29;20167;-77
2022/10/06 13:31:34;;;;;;;5.03;1.07;;;17.90;96.30;;;;;;4935808;29;20439;-77
2022/10/06 13:34:01;;;;;;;5.47;1.30;;;17.90;96.30;;;;;;4934759;29;20474;-76
2022/10/06 13:36:28;;;;;;;6.03;1.30;;;18.00;96.30;;;;;;4933696;29;20478;-77
2022/10/06 13:38:54;;;;;;;3.50;1.07;;;18.20;96.30;;;;;;4935002;29;20407;-77
2022/10/06 13:41:37;;;;;;;7.53;1.30;;;18.10;96.30;;;;;;4934954;29;20935;-77
2022/10/06 13:44:14;;;;;;;7.77;1.60;;;17.80;96.30;;;;;;4935017;29;20199;-77
2022/10/06 13:46:49;;;;;;;6.50;2.03;;;18.00;96.30;;;;;;4934581;29;20473;-75
2022/10/06 13:49:27;;;;;;;2.60;0.90;;;18.40;96.30;;;;;;4934710;29;20434;-75
2022/10/06 13:51:55;;;;;;;8.63;1.80;;;18.60;96.30;;;;;;4936322;29;20446;-75
2022/10/06 13:54:37;;;;;;;5.63;1.20;;;18.20;96.30;;;;;;4938656;29;20814;-75
2022/10/06 13:57:03;;;;;;;4.40;1.30;;;17.80;96.30;;;;;;4937894;29;20426;-75
2022/10/06 13:59:32;;;;;;;5.57;1.30;;;17.60;96.30;;;;;;4938000;29;20422;-77
2022/10/06 14:02:18;;;;;;;5.70;1.27;;;17.50;96.30;;;;;;4936519;29;20215;-77
2022/10/06 14:05:04;;;;;;;7.37;1.30;;;17.40;96.30;;;;;;4934555;29;20481;-75
2022/10/06 14:07:30;;;;;;;3.10;0.90;;;17.50;96.30;;;;;;4932526;29;20435;-77
2022/10/06 14:09:56;;;;;;;7.03;1.60;;;17.50;96.30;;;;;;4938705;29;20423;-78
2022/10/06 14:12:21;;;;;;;5.50;1.50;;;17.70;96.30;;;;;;4938990;29;20199;-78
2022/10/06 14:14:50;;;;;;;4.13;0.90;;;17.40;96.30;;;;;;4939167;29;20235;-78
2022/10/06 14:17:21;;;;;;;4.47;1.40;;;17.50;96.30;;;;;;4938412;29;20867;-76
2022/10/06 14:19:47;;;;;;;4.10;1.13;;;17.90;96.30;;;;;;4938064;29;20490;-78
2022/10/06 14:22:37;;;;;;;7.20;1.20;;;18.00;96.30;;;;;;4938075;29;20435;-77
2022/10/06 14:25:10;;;;;;;6.23;1.50;;;17.90;96.30;;;;;;4936823;29;20175;-76
2022/10/06 14:27:35;;;;;;;7.83;1.40;;;17.80;96.30;;;;;;4937909;29;20415;-76
2022/10/06 14:30:01;;;;;;;5.27;1.50;;;18.00;96.30;;;;;;4929726;29;20423;-77
2022/10/06 14:32:27;;;;;;;4.43;1.30;;;17.50;96.30;;;;;;4940810;29;20207;-78
2022/10/06 14:34:53;;;;;;;4.00;1.13;;;17.40;96.30;;;;;;4943482;28;20179;-78
2022/10/06 14:37:18;;;;;;;3.83;2.07;;;17.60;96.30;;;;;;4936485;29;20470;-77
2022/10/06 14:39:45;;;;;;;7.67;1.33;;;17.80;96.30;;;;;;4937606;29;20180;-77
2022/10/06 14:42:12;;;;;;;4.73;1.57;;;17.90;96.30;;;;;;4969415;28;20195;-78
2022/10/06 14:44:38;;;;;;;2.07;1.10;;;17.30;96.30;;;;;;4938753;29;20955;-78
2022/10/06 14:47:05;;;;;;;14.07;1.63;;;17.10;96.30;;;;;;4938272;29;20950;-78
2022/10/06 14:49:32;;;;;;;4.80;1.20;;;16.80;96.30;;;;;;4939108;29;20518;-78
2022/10/06 14:51:57;;;;;;;5.00;1.53;;;16.60;96.30;;;;;;4938822;29;20513;-78
2022/10/06 14:54:23;;;;;;;3.67;0.87;;;16.60;96.30;;;;;;4937082;29;20455;-77
2022/10/06 14:56:52;;;;;;;4.50;2.20;;;16.40;96.30;;;;;;4934631;29;20183;-76
2022/10/06 14:59:20;;;;;;;4.10;1.10;;;16.40;96.30;;;;;;4922741;29;20793;-76
2022/10/06 15:01:46;;;;;;;7.63;1.03;;;16.20;96.30;;;;;;4921524;29;20444;-78
2022/10/06 15:04:15;;;;;;;10.20;1.40;;;16.10;96.30;;;;;;4923408;29;20976;-78
2022/10/06 15:09:26;;;;;;;5.43;1.13;;;15.80;96.30;;;;;;4933286;29;20506;-78
2022/10/06 15:11:53;;;;;;;7.87;1.57;;;15.50;96.30;;;;;;4926796;29;20436;-78
2022/10/06 15:14:18;;;;;;;12.33;1.83;;;15.40;96.30;;;;;;4923644;29;20432;-78
2022/10/06 15:16:44;;;;;;;3.00;0.90;;;15.20;96.30;;;;;;4928344;29;20423;-78
2022/10/06 15:19:11;;;;;;;3.83;1.40;;;15.10;96.30;;;;;;4926705;29;20180;-78
2022/10/06 15:21:38;;;;;;;4.37;1.33;;;15.10;96.30;;;;;;4928635;29;20532;-78
2022/10/06 15:24:05;;;;;;;4.50;1.37;;;15.00;96.30;;;;;;4929682;29;20475;-78
2022/10/06 15:29:15;;;;;;;4.03;1.40;;;14.80;96.30;;;;;;4923084;29;20778;-77
2022/10/06 15:31:51;;;;;;;8.77;1.60;;;14.70;96.30;;;;;;4929135;29;20440;-78
2022/10/06 15:34:19;;;;;;;8.53;2.10;;;14.60;96.30;;;;;;4935611;29;20551;-77
2022/10/06 15:36:44;;;;;;;4.60;1.63;;;14.30;96.30;;;;;;4920557;29;20901;-77
2022/10/06 15:39:12;;;;;;;6.83;1.50;;;14.00;96.30;;;;;;4930404;29;20507;-78
2022/10/06 15:41:40;;;;;;;8.93;1.10;;;13.90;96.30;;;;;;4925527;29;20207;-78
2022/10/06 15:44:07;;;;;;;6.97;1.40;;;13.60;96.30;;;;;;4924354;29;20976;-78
2022/10/06 15:46:34;;;;;;;3.63;1.23;;;13.30;96.30;;;;;;4925753;29;20424;-77
2022/10/06 15:49:03;;;;;;;5.87;1.70;;;13.10;96.30;;;;;;4923832;29;20955;-77
2022/10/06 15:51:35;;;;;;;4.37;2.70;;;12.90;96.30;;;;;;4923402;29;20947;-77
2022/10/06 15:54:01;;;;;;;9.03;1.93;;;12.80;96.30;;;;;;4917544;29;20429;-77
2022/10/06 15:56:30;;;;;;;8.13;2.00;;;12.60;96.30;;;;;;4917529;29;20423;-77
2022/10/06 15:58:56;;;;;;;12.43;1.80;;;12.60;96.30;;;;;;4924219;29;20195;-78
2022/10/06 16:01:30;;;;;;;8.00;1.37;;;12.50;96.30;;;;;;4935666;29;20444;-77
2022/10/06 16:04:07;;;;;;;4.53;1.20;;;12.30;96.30;;;;;;4936011;29;20475;-77
2022/10/06 16:09:36;;;;;;;12.93;2.23;;;12.00;96.30;;;;;;4915721;29;20427;-77
2022/10/06 16:12:04;;;;;;;5.23;1.30;;;11.70;96.30;;;;;;4928323;29;20443;-77
2022/10/06 16:14:30;;;;;;;8.70;2.90;;;11.60;96.30;;;;;;4937380;29;20448;-76
2022/10/06 16:16:58;;;;;;;8.13;2.20;;;11.40;96.30;;;;;;4934791;29;20459;-75
2022/10/06 16:19:25;;;;;;;5.23;2.10;;;11.40;96.30;;;;;;4936011;29;20847;-77
2022/10/06 16:21:50;;;;;;;10.90;5.67;;;11.30;96.30;;;;;;4935189;29;21035;-77
2022/10/06 16:24:17;;;;;;;4.60;2.53;;;11.20;96.30;;;;;;4935463;29;20455;-77
2022/10/06 16:26:44;;;;;;;3.63;2.60;;;11.00;96.30;;;;;;4935533;29;20640;-77
2022/10/06 16:29:11;;;;;;;5.70;3.70;;;10.80;96.30;;;;;;4934556;29;20423;-77
2022/10/06 16:31:36;;;;;;;6.10;2.70;;;10.70;96.30;;;;;;4935602;29;20455;-76
2022/10/06 16:34:02;;;;;;;3.70;1.30;;;10.60;96.30;;;;;;4935826;29;20423;-75
2022/10/06 16:36:28;;;;;;;6.10;2.23;;;10.50;96.30;;;;;;4929475;29;20271;-76
2022/10/06 16:38:54;;;;;;;7.80;3.20;;;10.40;96.30;;;;;;4916299;29;20424;-76
2022/10/06 16:41:20;;;;;;;4.70;1.60;;;10.30;96.30;;;;;;4916840;29;20227;-76
2022/10/06 16:43:47;;;;;;;4.53;1.30;;;10.20;96.30;;;;;;4922410;29;20245;-76
2022/10/06 16:46:21;;;;;;;8.20;1.70;;;10.00;96.30;;;;;;4935609;29;20434;-75
2022/10/06 16:48:50;;;;;;;2.50;0.90;;;9.80;96.30;;;;;;4935083;29;20399;-75
2022/10/06 16:51:29;;;;;;;6.00;1.93;;;9.70;96.30;;;;;;4935618;29;20435;-75
2022/10/06 16:53:57;;;;;;;5.23;1.37;;;9.60;96.30;;;;;;4934344;29;20493;-75
2022/10/06 16:56:26;;;;;;;2.67;1.50;;;9.50;96.30;;;;;;4934211;29;20915;-75
2022/10/06 16:58:54;;;;;;;5.10;2.70;;;9.40;96.30;;;;;;4929742;29;20555;-76
2022/10/06 17:01:21;;;;;;;6.80;2.50;;;9.30;96.30;;;;;;4916416;29;20439;-76
2022/10/06 17:03:55;;;;;;;4.40;2.27;;;9.20;96.30;;;;;;4916529;29;20554;-78
2022/10/06 17:06:20;;;;;;;7.13;2.10;;;9.10;96.30;;;;;;4916057;29;20404;-76
2022/10/06 17:08:46;;;;;;;5.87;2.43;;;9.10;96.30;;;;;;4915689;29;20756;-76
2022/10/06 17:11:17;;;;;;;6.17;2.03;;;9.00;96.30;;;;;;4924081;29;20672;-77
2022/10/06 17:13:44;;;;;;;2.80;1.30;;;8.90;96.30;;;;;;4935257;29;20175;-76
2022/10/06 17:16:18;;;;;;;4.43;1.03;;;8.70;96.30;;;;;;4933748;29;20415;-76
2022/10/06 17:18:47;;;;;;;4.10;1.27;;;8.60;96.30;;;;;;4914855;29;20424;-77
2022/10/06 17:21:12;;;;;;;5.60;1.50;;;8.50;96.30;;;;;;4922680;29;20438;-76
2022/10/06 17:23:38;;;;;;;14.87;1.43;;;8.60;96.30;;;;;;4933659;29;20492;-77
2022/10/06 17:26:07;;;;;;;3.40;1.47;;;8.50;96.30;;;;;;4933626;29;20254;-76
2022/10/06 17:28:33;;;;;;;5.87;1.60;;;8.50;96.30;;;;;;4933448;29;20616;-76
2022/10/06 17:41:18;;;;;;;23.73;15.60;;;8.70;96.30;;;;;;4952146;28;21020;-75
2022/10/06 17:43:49;;;;;;;26.93;18.07;;;8.60;96.30;;;;;;4954023;28;20446;-76
2022/10/06 17:46:20;;;;;;;29.97;19.07;;;8.60;96.30;;;;;;4953634;28;20882;-75